createdAt,value
2023-03-03T00:45:44.427Z,-1.95
2023-03-03T00:49:39.127Z,-2.00
2023-03-03T00:53:11.469Z,-2.02
2023-03-03T00:56:36.072Z,-2.03
2023-03-03T01:00:25.525Z,-2.06
2023-03-03T01:04:14.314Z,-2.07
2023-03-03T01:07:32.079Z,-2.07
2023-03-03T01:11:17.459Z,-2.10
2023-03-03T01:14:59.806Z,-2.13
2023-03-03T01:18:32.829Z,-2.13
2023-03-03T01:22:21.855Z,-2.14
2023-03-03T01:26:02.598Z,-2.14
2023-03-03T01:29:12.075Z,-2.17
2023-03-03T01:32:59.512Z,-2.22
2023-03-03T01:36:41.588Z,-2.28
2023-03-03T01:40:32.345Z,-2.30
2023-03-03T01:44:14.855Z,-2.31
2023-03-03T02:06:30.406Z,-2.38
2023-03-03T02:09:38.567Z,-2.36
2023-03-03T02:13:17.558Z,-2.37
2023-03-03T02:16:49.771Z,-2.38
2023-03-03T02:20:07.205Z,-2.43
2023-03-03T02:24:09.484Z,-2.48
2023-03-03T03:24:06.993Z,-3.00
2023-03-03T03:33:44.769Z,-3.04
2023-03-03T03:36:32.136Z,-3.04
2023-03-03T03:39:30.000Z,-3.03
2023-03-03T03:42:24.532Z,-3.03
2023-03-03T03:45:10.489Z,-3.04
2023-03-03T03:48:22.091Z,-3.08
2023-03-03T03:51:33.976Z,-3.13
2023-03-03T03:54:23.025Z,-3.14
2023-03-03T03:57:48.147Z,-3.14
2023-03-03T04:00:49.454Z,-3.12
2023-03-03T04:04:29.682Z,-3.14
2023-03-03T04:07:26.907Z,-3.14
2023-03-03T04:10:48.683Z,-3.13
2023-03-03T04:14:17.844Z,-3.13
2023-03-03T04:17:31.294Z,-3.11
2023-03-03T04:20:39.963Z,-3.14
2023-03-03T04:24:20.010Z,-3.18
2023-03-03T04:26:58.476Z,-3.21
2023-03-03T04:29:29.367Z,-3.24
2023-03-03T04:32:33.019Z,-3.27
2023-03-03T04:35:56.422Z,-3.29
2023-03-03T04:39:36.745Z,-3.32
2023-03-03T04:42:28.717Z,-3.32
2023-03-03T04:45:48.271Z,-3.32
2023-03-03T04:48:57.096Z,-3.31
2023-03-03T04:51:59.941Z,-3.33
2023-03-03T04:55:36.765Z,-3.36
2023-03-03T04:58:51.189Z,-3.38
2023-03-03T05:01:53.428Z,-3.41
2023-03-03T05:05:22.892Z,-3.41
2023-03-03T05:08:02.523Z,-3.44
2023-03-03T05:11:14.198Z,-3.44
2023-03-03T05:14:23.035Z,-3.46
2023-03-03T05:17:17.615Z,-3.51
2023-03-03T05:20:12.665Z,-3.52
2023-03-03T05:23:23.944Z,-3.52
2023-03-03T05:26:01.127Z,-3.52
2023-03-03T05:28:34.714Z,-3.51
2023-03-03T05:31:02.928Z,-3.50
2023-03-03T05:33:35.020Z,-3.49
2023-03-03T05:36:27.532Z,-3.50
2023-03-03T05:39:18.987Z,-3.55
2023-03-03T05:41:47.386Z,-3.59
2023-03-03T05:44:45.968Z,-3.60
2023-03-03T05:47:45.454Z,-3.61
2023-03-03T05:50:34.746Z,-3.58
2023-03-03T05:53:29.288Z,-3.56
2023-03-03T05:55:59.937Z,-3.55
2023-03-03T05:58:46.676Z,-3.54
2023-03-03T06:01:58.865Z,-3.52
2023-03-03T06:04:47.466Z,-3.48
2023-03-03T06:07:30.453Z,-3.44
2023-03-03T06:10:37.699Z,-3.38
2023-03-03T06:13:32.503Z,-3.30
2023-03-03T06:16:44.363Z,-3.22
2023-03-03T06:19:50.322Z,-3.12
2023-03-03T06:22:43.385Z,-3.05
2023-03-03T06:25:35.937Z,-2.99
2023-03-03T06:28:45.277Z,-2.91
2023-03-03T06:31:47.026Z,-2.82
2023-03-03T06:34:58.952Z,-2.73
2023-03-03T06:37:55.292Z,-2.64
2023-03-03T06:40:49.015Z,-2.55
2023-03-03T06:44:20.083Z,-2.45
2023-03-03T06:46:51.126Z,-2.35
2023-03-03T06:49:27.743Z,-2.24
2023-03-03T06:52:19.104Z,-2.11
2023-03-03T06:55:45.234Z,-1.94
2023-03-03T06:58:41.735Z,-1.74
2023-03-03T07:01:20.972Z,-1.56
2023-03-03T07:04:40.836Z,-1.41
2023-03-03T07:07:54.930Z,-1.25
2023-03-03T07:10:33.374Z,-1.10
2023-03-03T07:13:26.043Z,-1.00
2023-03-03T07:16:16.038Z,-0.91
2023-03-03T07:19:06.945Z,-0.82
2023-03-03T07:22:18.291Z,-0.76
2023-03-03T07:25:22.493Z,-0.73
2023-03-03T07:28:42.412Z,-0.76
2023-03-03T07:31:47.971Z,-0.68
2023-03-03T07:35:07.711Z,-0.61
2023-03-03T07:38:31.709Z,-0.61
2023-03-03T07:41:29.437Z,-0.67
2023-03-03T07:44:42.342Z,-0.71
2023-03-03T07:47:40.896Z,-0.74
2023-03-03T07:50:22.610Z,-0.71
2023-03-03T07:53:21.981Z,-0.71
2023-03-03T07:56:46.421Z,-0.69
2023-03-03T07:59:48.853Z,-0.61
2023-03-03T08:03:04.756Z,-0.49
2023-03-03T08:09:56.667Z,-0.10
2023-03-03T08:12:59.330Z,0.11
2023-03-03T08:16:32.588Z,0.28
2023-03-03T08:19:39.307Z,0.41
2023-03-03T08:22:45.014Z,0.50
2023-03-03T08:25:25.058Z,0.63
2023-03-03T08:28:13.782Z,0.75
2023-03-03T08:31:41.899Z,0.78
2023-03-03T08:34:31.193Z,0.74
2023-03-03T08:37:46.266Z,0.69
2023-03-03T08:40:40.971Z,0.60
2023-03-03T08:43:57.225Z,0.51
2023-03-03T08:47:10.757Z,0.44
2023-03-03T08:50:07.543Z,0.36
2023-03-03T08:53:07.533Z,0.32
2023-03-03T08:55:45.592Z,0.24
2023-03-03T08:58:18.197Z,0.18
2023-03-03T09:01:41.365Z,0.13
2023-03-03T09:04:32.410Z,0.08
2023-03-03T09:08:21.912Z,0.02
2023-03-03T09:11:21.750Z,-0.00
2023-03-03T09:14:39.571Z,-0.02
2023-03-03T09:17:57.772Z,-0.07
2023-03-03T09:21:47.813Z,-0.09
2023-03-03T09:24:55.465Z,-0.14
2023-03-03T09:28:24.154Z,-0.20
2023-03-03T09:31:24.359Z,-0.24
2023-03-03T09:34:41.039Z,-0.28
2023-03-03T09:38:05.421Z,-0.31
2023-03-03T09:41:10.668Z,-0.36
2023-03-03T09:48:33.778Z,-0.38
2023-03-03T09:56:02.210Z,-0.38
2023-03-03T09:58:58.490Z,-0.43
2023-03-03T10:01:58.638Z,-0.46
2023-03-03T10:05:14.662Z,-0.45
2023-03-03T10:09:26.839Z,-0.45
2023-03-03T10:16:38.977Z,-0.46
2023-03-03T10:20:28.138Z,-0.49
2023-03-03T10:23:43.022Z,-0.50
2023-03-03T10:27:09.820Z,-0.47
2023-03-03T10:31:04.350Z,-0.45
2023-03-03T10:34:36.613Z,-0.42
2023-03-03T10:38:27.213Z,-0.38
2023-03-03T10:42:07.249Z,-0.39
2023-03-03T10:45:56.481Z,-0.39
2023-03-03T11:23:42.500Z,-0.18
2023-03-03T11:26:57.356Z,-0.20
2023-03-03T11:30:35.474Z,-0.20
2023-03-03T11:34:07.247Z,-0.19
2023-03-03T11:36:50.985Z,-0.22
2023-03-03T11:39:36.820Z,-0.23
2023-03-03T11:43:01.488Z,-0.25
2023-03-03T11:47:01.385Z,-0.25
2023-03-03T11:51:01.168Z,-0.26
2023-03-03T11:55:01.234Z,-0.27
2023-03-03T11:58:01.083Z,-0.29
2023-03-03T12:00:37.390Z,-0.31
2023-03-03T12:03:35.890Z,-0.33
2023-03-03T12:07:21.155Z,-0.32
2023-03-03T12:11:19.892Z,-0.35
2023-03-03T12:14:33.793Z,-0.37
2023-03-03T12:17:23.352Z,-0.38
2023-03-03T12:20:47.683Z,-0.37
2023-03-03T12:24:32.847Z,-0.36
2023-03-03T12:28:08.381Z,-0.36
2023-03-03T12:35:36.734Z,-0.38
2023-03-03T12:39:32.374Z,-0.38
2023-03-03T12:43:02.432Z,-0.37
2023-03-03T12:46:29.448Z,-0.37
2023-03-03T12:50:11.938Z,-0.37
2023-03-03T12:53:52.317Z,-0.38
2023-03-03T12:57:04.664Z,-0.41
2023-03-03T13:01:08.835Z,-0.43
2023-03-03T13:04:50.071Z,-0.44
2023-03-03T13:08:31.371Z,-0.45
2023-03-03T13:12:08.021Z,-0.43
2023-03-03T13:15:58.342Z,-0.40
2023-03-03T13:19:23.144Z,-0.39
2023-03-03T13:50:58.038Z,-0.40
2023-03-03T14:13:13.784Z,-0.36
2023-03-03T14:16:40.816Z,-0.37
2023-03-03T14:20:30.081Z,-0.37
2023-03-03T14:23:46.669Z,-0.35
2023-03-03T14:56:05.297Z,-0.38
2023-03-03T14:59:54.607Z,-0.36
2023-03-03T15:02:54.006Z,-0.34
2023-03-03T15:06:38.069Z,-0.33
2023-03-03T15:09:58.950Z,-0.35
2023-03-03T15:12:37.767Z,-0.37
2023-03-03T15:15:30.966Z,-0.40
2023-03-03T15:18:10.308Z,-0.42
2023-03-03T15:21:22.261Z,-0.43
2023-03-03T15:24:29.676Z,-0.43
2023-03-03T15:27:50.895Z,-0.41
2023-03-03T15:31:02.828Z,-0.42
2023-03-03T15:34:26.546Z,-0.43
2023-03-03T15:37:53.703Z,-0.42
2023-03-03T15:41:08.074Z,-0.43
2023-03-03T15:44:47.404Z,-0.45
2023-03-03T15:48:47.673Z,-0.48
2023-03-03T15:52:14.177Z,-0.52
2023-03-03T15:55:05.748Z,-0.56
2023-03-03T15:57:51.218Z,-0.57
2023-03-03T16:00:43.944Z,-0.59
2023-03-03T16:03:24.098Z,-0.60
2023-03-03T16:06:18.952Z,-0.61
2023-03-03T16:09:31.099Z,-0.60
2023-03-03T16:12:50.618Z,-0.61
2023-03-03T16:16:29.587Z,-0.60
2023-03-03T16:20:24.366Z,-0.61
2023-03-03T16:23:57.162Z,-0.60
2023-03-03T16:28:07.517Z,-0.58
2023-03-03T16:54:38.003Z,-0.63
2023-03-03T16:58:51.410Z,-0.65
2023-03-03T17:02:55.937Z,-0.69
2023-03-03T17:06:55.391Z,-0.72
2023-03-03T17:10:31.950Z,-0.72
2023-03-03T17:22:41.641Z,-0.75
2023-03-03T17:26:39.591Z,-0.79
2023-03-03T17:30:36.366Z,-0.81
2023-03-03T17:34:11.669Z,-0.81
2023-03-03T17:37:15.087Z,-0.81
2023-03-03T17:40:56.713Z,-0.79
2023-03-03T17:56:33.474Z,-0.81
2023-03-03T18:00:19.265Z,-0.80
2023-03-03T18:04:08.649Z,-0.80
2023-03-03T18:07:34.933Z,-0.81
2023-03-03T18:11:26.991Z,-0.81
2023-03-03T18:15:12.310Z,-0.80
2023-03-03T18:18:21.719Z,-0.80
2023-03-03T18:22:06.959Z,-0.78
2023-03-03T18:25:50.323Z,-0.77
2023-03-03T18:56:33.593Z,-0.76
2023-03-03T18:59:47.272Z,-0.76
2023-03-03T19:10:42.751Z,-0.75
2023-03-03T19:13:49.517Z,-0.74
2023-03-03T19:17:43.370Z,-0.74
2023-03-03T19:20:18.618Z,-0.74
2023-03-03T19:23:04.564Z,-0.75
2023-03-03T19:26:59.006Z,-0.77
2023-03-03T19:31:17.430Z,-0.79
2023-03-03T19:34:54.424Z,-0.82
2023-03-03T19:38:03.028Z,-0.85
2023-03-03T19:41:41.154Z,-0.88
2023-03-03T19:45:15.004Z,-0.89
2023-03-03T20:04:01.041Z,-0.91
2023-03-03T20:07:23.996Z,-0.91
2023-03-03T20:11:15.375Z,-0.89
2023-03-03T20:14:32.566Z,-0.88
2023-03-03T20:18:27.922Z,-0.86
2023-03-03T20:25:45.961Z,-0.84
2023-03-03T20:29:13.752Z,-0.83
2023-03-03T20:32:43.971Z,-0.85
2023-03-03T20:36:24.892Z,-0.85
2023-03-03T21:14:41.472Z,-0.78
2023-03-03T21:18:09.537Z,-0.78
2023-03-03T21:22:01.530Z,-0.80
2023-03-03T21:25:54.757Z,-0.81
2023-03-03T21:29:39.376Z,-0.82
2023-03-03T21:33:31.365Z,-0.83
2023-03-03T21:37:01.083Z,-0.84
2023-03-03T21:52:21.905Z,-0.83
2023-03-03T21:55:50.334Z,-0.82
2023-03-03T21:59:32.804Z,-0.81
2023-03-03T22:02:33.720Z,-0.81
2023-03-03T22:05:53.954Z,-0.76
2023-03-03T22:09:08.547Z,-0.62
2023-03-03T22:12:40.296Z,-0.61
2023-03-03T22:16:04.926Z,-0.67
2023-03-03T22:19:10.076Z,-0.69
2023-03-03T22:22:42.814Z,-0.59
2023-03-03T22:26:16.973Z,-0.47
2023-03-03T22:29:38.914Z,-0.41
2023-03-03T22:32:57.010Z,-0.49
2023-03-03T22:35:58.997Z,-0.54
2023-03-03T22:39:41.144Z,-0.55
2023-03-03T22:43:30.131Z,-0.43
2023-03-03T22:47:18.260Z,-0.36
2023-03-03T22:50:58.518Z,-0.30
2023-03-03T22:54:29.503Z,-0.26
2023-03-03T22:58:18.824Z,-0.23
2023-03-03T23:02:08.413Z,-0.22
2023-03-03T23:05:51.343Z,-0.21
2023-03-03T23:09:26.144Z,-0.19
2023-03-03T23:12:51.391Z,-0.17
2023-03-03T23:16:13.225Z,-0.15
2023-03-03T23:19:29.248Z,-0.12
